Latest Weather Observations for Wattamolla

IDN60901

Issued at 2:51 pm EST Saturday 27 August 2016 (issued every 10 minutes, with the page automatically refreshed every 10 minutes)

About weather observations | Map of Sydney area stations | Latest observations for Sydney area | Other Formats
Station Details ID: 066208 Name: WATTAMOLLA AWS Lat: -34.14 Lon: 151.12 Height: 44.0 m
Data from the previous 72 hours. | See also: Recent months for locations in New South Wales
Date/Time
EST
Temp
°C
App
Temp
°C
Dew
Point
°C
Rel
Hum
%
Delta-T
°C
Wind Press
QNH
hPa
Press
MSL
hPa
Rain since
9am
mm
Dir  Spd
km/h
Gust
km/h
Spd
kts
Gust
kts
27/02:30pm - - - - - NNW 15 22 8 12 - - -
27/02:00pm - - - - - N 13 22 7 12 - - -
27/01:30pm - - - - - NNW 15 26 8 14 - - -
27/01:00pm - - - - - NNW 15 26 8 14 - - -
27/12:30pm - - - - - NNW 13 22 7 12 - - -
27/12:00pm - - - - - NW 15 19 8 10 - - -
27/11:30am - - - - - NW 9 19 5 10 - - -
27/11:00am - - - - - NW 9 13 5 7 - - -
27/10:30am - - - - - W 11 15 6 8 - - -
27/10:00am - - - - - WNW 13 19 7 10 - - -
27/09:30am - - - - - W 15 22 8 12 - - -
27/09:00am - - - - - W 17 20 9 11 - - -
27/08:30am - - - - - W 19 26 10 14 - - -
27/08:00am - - - - - W 22 30 12 16 - - -
27/07:30am - - - - - W 28 33 15 18 - - -
27/07:00am - - - - - W 30 39 16 21 - - -
27/06:30am - - - - - W 30 37 16 20 - - -
27/06:00am - - - - - W 28 33 15 18 - - -
27/05:30am - - - - - W 24 30 13 16 - - -
27/05:00am - - - - - W 26 30 14 16 - - -
27/04:30am - - - - - W 26 30 14 16 - - -
27/04:00am - - - - - W 26 30 14 16 - - -
27/03:30am - - - - - WNW 15 19 8 10 - - -
27/03:00am - - - - - WNW 15 19 8 10 - - -
27/02:30am - - - - - NW 15 17 8 9 - - -
27/02:00am - - - - - WNW 13 17 7 9 - - -
27/01:30am - - - - - NW 15 19 8 10 - - -
27/01:00am - - - - - NW 11 13 6 7 - - -
27/12:30am - - - - - SSE 11 13 6 7 - - -
27/12:00am - - - - - SSE 19 26 10 14 - - -
 
Date/Time
EST
Temp
°C
App
Temp
°C
Dew
Point
°C
Rel
Hum
%
Delta-T
°C
Wind Press
QNH
hPa
Press
MSL
hPa
Rain since
9am
mm
Dir  Spd
km/h
Gust
km/h
Spd
kts
Gust
kts
26/11:30pm - - - - - S 22 32 12 17 - - -
26/11:00pm - - - - - W 19 22 10 12 - - -
26/10:30pm - - - - - W 17 17 9 9 - - -
26/10:00pm - - - - - SW 13 17 7 9 - - -
26/09:30pm - - - - - W 7 15 4 8 - - -
26/09:00pm - - - - - SE 13 19 7 10 - - -
26/08:40pm - - - - - SE 33 52 18 28 - - -
26/08:30pm - - - - - SSE 41 56 22 30 - - -
26/08:17pm - - - - - SSE 33 52 18 28 - - -
26/08:00pm - - - - - SSE 32 43 17 23 - - -
26/07:30pm - - - - - SSE 37 52 20 28 - - -
26/07:24pm - - - - - SSE 30 50 16 27 - - -
26/07:00pm - - - - - S 35 43 19 23 - - -
26/06:30pm - - - - - S 39 46 21 25 - - -
26/06:00pm - - - - - S 41 52 22 28 - - -
26/05:30pm - - - - - S 44 52 24 28 - - -
26/05:00pm - - - - - S 48 57 26 31 - - -
26/04:30pm - - - - - S 48 56 26 30 - - -
26/04:00pm - - - - - S 44 57 24 31 - - -
26/03:30pm - - - - - SSE 48 59 26 32 - - -
26/03:00pm - - - - - SSE 41 48 22 26 - - -
26/01:09pm - - - - - S 44 50 24 27 - - -
26/01:00pm - - - - - WNW 9 46 5 25 - - -
26/12:48pm - - - - - - 6 - 3 - - - -
26/12:30pm - - - - - S 39 52 21 28 - - -
26/12:00pm - - - - - S 32 41 17 22 - - -
26/11:30am - - - - - S 43 52 23 28 - - -
26/11:00am - - - - - S 43 52 23 28 - - -
26/10:30am - - - - - S 44 54 24 29 - - -
26/10:00am - - - - - S 39 54 21 29 - - -
26/09:30am - - - - - S 44 56 24 30 - - -
26/09:00am - - - - - S 41 54 22 29 - - -
26/08:33am - - - - - S 30 52 16 28 - - -
26/08:30am - - - - - S 32 46 17 25 - - -
26/08:00am - - - - - S 39 52 21 28 - - -
26/07:30am - - - - - S 37 50 20 27 - - -
26/07:00am - - - - - S 46 61 25 33 - - -
26/06:45am - - - - - S 35 54 19 29 - - -
26/06:30am - - - - - S 35 48 19 26 - - -
26/06:28am - - - - - S 33 48 18 26 - - -
26/06:00am - - - - - W 22 28 12 15 - - -
26/05:30am - - - - - W 22 30 12 16 - - -
26/05:00am - - - - - W 20 28 11 15 - - -
26/04:30am - - - - - W 20 26 11 14 - - -
26/04:00am - - - - - W 20 26 11 14 - - -
26/03:30am - - - - - W 20 28 11 15 - - -
26/03:00am - - - - - W 20 28 11 15 - - -
26/02:30am - - - - - WSW 17 22 9 12 - - -
26/02:00am - - - - - SSW 22 37 12 20 - - -
26/01:48am - - - - - SSW 26 50 14 27 - - -
26/01:40am - - - - - S 37 52 20 28 - - -
26/01:39am - - - - - S 39 57 21 31 - - -
26/01:30am - - - - - S 46 59 25 32 - - -
26/01:00am - - - - - S 44 63 24 34 - - -
26/12:42am - - - - - S 28 67 15 36 - - -
26/12:30am - - - - - SSW 22 37 12 20 - - -
26/12:00am - - - - - SW 24 44 13 24 - - -
 
Date/Time
EST
Temp
°C
App
Temp
°C
Dew
Point
°C
Rel
Hum
%
Delta-T
°C
Wind Press
QNH
hPa
Press
MSL
hPa
Rain since
9am
mm
Dir  Spd
km/h
Gust
km/h
Spd
kts
Gust
kts
25/11:30pm - - - - - SW 19 33 10 18 - - -
25/11:00pm - - - - - SW 20 30 11 16 - - -
25/10:30pm - - - - - W 28 41 15 22 - - -
25/10:00pm - - - - - W 28 41 15 22 - - -
25/09:30pm - - - - - WNW 26 44 14 24 - - -
25/09:00pm - - - - - WNW 17 24 9 13 - - -
25/08:30pm - - - - - WNW 15 19 8 10 - - -
25/08:00pm - - - - - NW 11 15 6 8 - - -
25/07:30pm - - - - - NW 11 13 6 7 - - -
25/07:00pm - - - - - WNW 7 9 4 5 - - -
25/06:30pm - - - - - W 9 11 5 6 - - -
25/06:00pm - - - - - SW 9 11 5 6 - - -
25/05:30pm - - - - - S 19 22 10 12 - - -
25/05:00pm - - - - - S 24 32 13 17 - - -
25/04:30pm - - - - - S 26 32 14 17 - - -
25/04:00pm - - - - - - - - - - - - -
25/03:30pm - - - - - SSE 28 33 15 18 - - -
25/03:00pm - - - - - SSE 26 33 14 18 - - -
25/02:30pm - - - - - SSE 32 39 17 21 - - -
25/02:00pm - - - - - - - - - - - - -
25/01:30pm - - - - - S 32 41 17 22 - - -
25/01:00pm - - - - - S 35 44 19 24 - - -
25/12:30pm - - - - - S 37 48 20 26 - - -
25/12:01pm - - - - - S 37 56 20 30 - - -
25/12:00pm - - - - - S 37 56 20 30 - - -
25/11:30am - - - - - S 37 48 20 26 - - -
25/11:00am - - - - - S 32 48 17 26 - - -
25/10:55am - - - - - S 28 46 15 25 - - -
25/10:30am - - - - - S 24 37 13 20 - - -
25/10:00am - - - - - S 30 50 16 27 - - -
25/09:35am - - - - - SSW 28 48 15 26 - - -
25/09:30am - - - - - SSW 24 39 13 21 - - -
25/09:12am - - - - - SSW 26 50 14 27 - - -
25/09:00am - - - - - SSW 24 44 13 24 - - -
25/08:30am - - - - - SSW 24 41 13 22 - - -
25/08:00am - - - - - SW 22 37 12 20 - - -
25/07:30am - - - - - SSW 22 37 12 20 - - -
25/07:00am - - - - - S 33 59 18 32 - - -
25/06:30am - - - - - S 39 59 21 32 - - -
25/06:02am - - - - - S 41 65 22 35 - - -
25/06:00am - - - - - S 41 57 22 31 - - -
25/05:35am - - - - - S 30 56 16 30 - - -
25/05:30am - - - - - S 32 46 17 25 - - -
25/05:00am - - - - - S 39 57 21 31 - - -
25/04:30am - - - - - S 35 61 19 33 - - -
25/04:02am - - - - - S 33 54 18 29 - - -
25/04:00am - - - - - S 33 50 18 27 - - -
25/03:51am - - - - - S 30 48 16 26 - - -
25/03:30am - - - - - SW 24 37 13 20 - - -
25/03:00am - - - - - SSW 32 52 17 28 - - -
25/02:58am - - - - - S 32 52 17 28 - - -
25/02:54am - - - - - S 33 56 18 30 - - -
25/02:30am - - - - - S 41 61 22 33 - - -
25/02:04am - - - - - S 46 65 25 35 - - -
25/02:00am - - - - - S 48 65 26 35 - - -
25/01:30am - - - - - S 32 50 17 27 - - -
25/01:20am - - - - - S 32 50 17 27 - - -
25/01:00am - - - - - S 32 44 17 24 - - -
25/12:32am - - - - - S 43 61 23 33 - - -
25/12:30am - - - - - S 46 61 25 33 - - -
25/12:02am - - - - - S 43 61 23 33 - - -
25/12:00am - - - - - S 41 57 22 31 - - -
 
Date/Time
EST
Temp
°C
App
Temp
°C
Dew
Point
°C
Rel
Hum
%
Delta-T
°C
Wind Press
QNH
hPa
Press
MSL
hPa
Rain since
9am
mm
Dir  Spd
km/h
Gust
km/h
Spd
kts
Gust
kts
24/11:30pm - - - - - S 43 67 23 36 - - -
24/11:24pm - - - - - SSW 33 59 18 32 - - -
24/11:23pm - - - - - SSW 30 54 16 29 - - -
24/11:16pm - - - - - SSW 28 50 15 27 - - -
24/11:10pm - - - - - S 32 50 17 27 - - -
24/11:03pm - - - - - S 46 65 25 35 - - -
24/11:00pm - - - - - S 54 65 29 35 - - -
24/10:42pm - - - - - S 44 63 24 34 - - -
24/10:38pm - - - - - S 35 54 19 29 - - -
24/10:30pm - - - - - S 33 48 18 26 - - -
24/10:04pm - - - - - S 41 61 22 33 - - -
24/10:00pm - - - - - S 43 56 23 30 - - -
24/09:58pm - - - - - S 43 56 23 30 - - -
24/09:30pm - - - - - SSE 57 70 31 38 - - -
24/09:00pm - - - - - SSE 59 72 32 39 - - -
24/08:30pm - - - - - S 67 78 36 42 - - -
24/08:04pm - - - - - SSE 54 72 29 39 - - -
24/08:00pm - - - - - S 56 67 30 36 - - -
24/07:30pm - - - - - SSE 57 72 31 39 - - -
24/07:00pm - - - - - SSE 52 76 28 41 - - -
24/06:39pm - - - - - SSE 56 74 30 40 - - -
24/06:30pm - - - - - - - - - - - - -
24/06:00pm - - - - - SSE 57 76 31 41 - - -
24/05:30pm - - - - - SSE 54 80 29 43 - - -
24/05:13pm - - - - - SSE 56 74 30 40 - - -
24/05:00pm - - - - - - - - - - - - -
24/04:00pm - - - - - SSE 39 54 21 29 - - -
24/03:34pm - - - - - SSE 30 48 16 26 - - -
24/03:30pm - - - - - SSE 33 48 18 26 - - -

Latest Capital City Observations: Canberra | Sydney | Melbourne | Brisbane | Adelaide | Perth | Hobart | Darwin

Other Formats:

Comma delimited format used in spreadsheet applications
http://www.bom.gov.au/fwo/IDN60901/IDN60901.95752.axf

JavaScript Object Notation format (JSON) in row-major order
http://www.bom.gov.au/fwo/IDN60901/IDN60901.95752.json